sensor_id;sensor_type;location;lat;lon;timestamp;P1;durP1;ratioP1;P2;durP2;ratioP2
5010;SDS011;2524;54.364;10.072;2022-07-18T00:02:22;1.10;;;1.10;;
5010;SDS011;2524;54.364;10.072;2022-07-18T00:04:48;1.13;;;1.13;;
5010;SDS011;2524;54.364;10.072;2022-07-18T00:07:14;1.20;;;1.20;;
5010;SDS011;2524;54.364;10.072;2022-07-18T00:09:40;1.10;;;1.00;;
5010;SDS011;2524;54.364;10.072;2022-07-18T00:12:07;1.20;;;1.20;;
5010;SDS011;2524;54.364;10.072;2022-07-18T00:14:34;1.13;;;1.13;;
5010;SDS011;2524;54.364;10.072;2022-07-18T00:17:00;1.00;;;1.00;;
5010;SDS011;2524;54.364;10.072;2022-07-18T00:19:26;1.23;;;1.13;;
5010;SDS011;2524;54.364;10.072;2022-07-18T00:21:52;1.20;;;1.10;;
5010;SDS011;2524;54.364;10.072;2022-07-18T00:24:18;1.20;;;1.20;;
5010;SDS011;2524;54.364;10.072;2022-07-18T00:26:44;1.13;;;1.13;;
5010;SDS011;2524;54.364;10.072;2022-07-18T00:29:10;1.00;;;1.00;;
5010;SDS011;2524;54.364;10.072;2022-07-18T00:31:36;1.17;;;1.17;;
5010;SDS011;2524;54.364;10.072;2022-07-18T00:34:03;2.60;;;1.23;;
5010;SDS011;2524;54.364;10.072;2022-07-18T00:36:29;1.00;;;1.00;;
5010;SDS011;2524;54.364;10.072;2022-07-18T00:38:57;1.10;;;1.10;;
5010;SDS011;2524;54.364;10.072;2022-07-18T00:41:23;1.00;;;1.00;;
5010;SDS011;2524;54.364;10.072;2022-07-18T00:43:49;1.43;;;1.33;;
5010;SDS011;2524;54.364;10.072;2022-07-18T00:46:15;1.20;;;1.20;;
5010;SDS011;2524;54.364;10.072;2022-07-18T00:48:42;1.03;;;1.03;;
5010;SDS011;2524;54.364;10.072;2022-07-18T00:51:08;1.30;;;1.30;;
5010;SDS011;2524;54.364;10.072;2022-07-18T00:53:34;1.30;;;1.20;;
5010;SDS011;2524;54.364;10.072;2022-07-18T00:56:01;1.23;;;1.23;;
5010;SDS011;2524;54.364;10.072;2022-07-18T00:58:27;1.10;;;1.10;;
5010;SDS011;2524;54.364;10.072;2022-07-18T01:00:53;1.13;;;1.10;;
5010;SDS011;2524;54.364;10.072;2022-07-18T01:03:38;1.27;;;1.27;;
5010;SDS011;2524;54.364;10.072;2022-07-18T01:06:04;1.40;;;1.40;;
5010;SDS011;2524;54.364;10.072;2022-07-18T01:08:30;1.27;;;1.27;;
5010;SDS011;2524;54.364;10.072;2022-07-18T01:10:57;1.33;;;1.33;;
5010;SDS011;2524;54.364;10.072;2022-07-18T01:13:23;1.20;;;1.20;;
5010;SDS011;2524;54.364;10.072;2022-07-18T01:15:50;1.13;;;1.13;;
5010;SDS011;2524;54.364;10.072;2022-07-18T01:18:16;1.27;;;1.27;;
5010;SDS011;2524;54.364;10.072;2022-07-18T01:20:42;1.20;;;1.20;;
5010;SDS011;2524;54.364;10.072;2022-07-18T01:23:08;1.10;;;1.10;;
5010;SDS011;2524;54.364;10.072;2022-07-18T01:25:34;1.40;;;1.40;;
5010;SDS011;2524;54.364;10.072;2022-07-18T01:28:00;1.27;;;1.27;;
5010;SDS011;2524;54.364;10.072;2022-07-18T01:30:26;1.80;;;1.43;;
5010;SDS011;2524;54.364;10.072;2022-07-18T01:32:59;1.53;;;1.53;;
5010;SDS011;2524;54.364;10.072;2022-07-18T01:35:25;1.50;;;1.50;;
5010;SDS011;2524;54.364;10.072;2022-07-18T01:37:52;1.50;;;1.50;;
5010;SDS011;2524;54.364;10.072;2022-07-18T01:40:18;1.33;;;1.23;;
5010;SDS011;2524;54.364;10.072;2022-07-18T01:42:44;1.17;;;1.13;;
5010;SDS011;2524;54.364;10.072;2022-07-18T01:45:11;1.23;;;1.23;;
5010;SDS011;2524;54.364;10.072;2022-07-18T01:47:37;1.10;;;1.10;;
5010;SDS011;2524;54.364;10.072;2022-07-18T01:50:03;1.40;;;1.40;;
5010;SDS011;2524;54.364;10.072;2022-07-18T01:52:29;1.30;;;1.20;;
5010;SDS011;2524;54.364;10.072;2022-07-18T01:54:55;1.20;;;1.20;;
5010;SDS011;2524;54.364;10.072;2022-07-18T01:57:21;1.90;;;1.23;;
5010;SDS011;2524;54.364;10.072;2022-07-18T01:59:48;1.40;;;1.30;;
5010;SDS011;2524;54.364;10.072;2022-07-18T02:02:14;1.17;;;1.17;;
5010;SDS011;2524;54.364;10.072;2022-07-18T02:04:40;1.13;;;1.07;;
5010;SDS011;2524;54.364;10.072;2022-07-18T02:07:25;1.50;;;1.50;;
5010;SDS011;2524;54.364;10.072;2022-07-18T02:09:51;1.40;;;1.40;;
5010;SDS011;2524;54.364;10.072;2022-07-18T02:12:17;1.10;;;1.10;;
5010;SDS011;2524;54.364;10.072;2022-07-18T02:14:43;1.17;;;1.17;;
5010;SDS011;2524;54.364;10.072;2022-07-18T02:17:09;1.47;;;1.40;;
5010;SDS011;2524;54.364;10.072;2022-07-18T02:19:35;1.30;;;1.30;;
5010;SDS011;2524;54.364;10.072;2022-07-18T02:22:01;1.70;;;1.60;;
5010;SDS011;2524;54.364;10.072;2022-07-18T02:24:27;1.30;;;1.30;;
5010;SDS011;2524;54.364;10.072;2022-07-18T02:26:53;1.20;;;1.20;;
5010;SDS011;2524;54.364;10.072;2022-07-18T02:29:19;1.10;;;1.10;;
5010;SDS011;2524;54.364;10.072;2022-07-18T02:31:45;1.30;;;1.30;;
5010;SDS011;2524;54.364;10.072;2022-07-18T02:34:11;1.50;;;1.50;;
5010;SDS011;2524;54.364;10.072;2022-07-18T02:36:38;1.43;;;1.33;;
5010;SDS011;2524;54.364;10.072;2022-07-18T02:39:04;1.20;;;1.10;;
5010;SDS011;2524;54.364;10.072;2022-07-18T02:41:30;1.20;;;1.10;;
5010;SDS011;2524;54.364;10.072;2022-07-18T02:43:56;1.10;;;1.10;;
5010;SDS011;2524;54.364;10.072;2022-07-18T02:46:22;1.67;;;1.57;;
5010;SDS011;2524;54.364;10.072;2022-07-18T02:48:49;1.67;;;1.57;;
5010;SDS011;2524;54.364;10.072;2022-07-18T02:51:15;1.83;;;1.70;;
5010;SDS011;2524;54.364;10.072;2022-07-18T02:53:41;1.50;;;1.50;;
5010;SDS011;2524;54.364;10.072;2022-07-18T02:56:07;1.67;;;1.57;;
5010;SDS011;2524;54.364;10.072;2022-07-18T02:58:33;1.50;;;1.40;;
5010;SDS011;2524;54.364;10.072;2022-07-18T03:00:59;1.37;;;1.37;;
5010;SDS011;2524;54.364;10.072;2022-07-18T03:03:25;1.47;;;1.40;;
5010;SDS011;2524;54.364;10.072;2022-07-18T03:05:51;1.30;;;1.30;;
5010;SDS011;2524;54.364;10.072;2022-07-18T03:08:17;1.30;;;1.30;;
5010;SDS011;2524;54.364;10.072;2022-07-18T03:10:43;1.20;;;1.20;;
5010;SDS011;2524;54.364;10.072;2022-07-18T03:13:09;1.50;;;1.50;;
5010;SDS011;2524;54.364;10.072;2022-07-18T03:15:36;1.43;;;1.43;;
5010;SDS011;2524;54.364;10.072;2022-07-18T03:18:02;1.50;;;1.50;;
5010;SDS011;2524;54.364;10.072;2022-07-18T03:20:28;1.40;;;1.40;;
5010;SDS011;2524;54.364;10.072;2022-07-18T03:22:54;1.40;;;1.40;;
5010;SDS011;2524;54.364;10.072;2022-07-18T03:25:20;1.20;;;1.20;;
5010;SDS011;2524;54.364;10.072;2022-07-18T03:27:46;1.27;;;1.27;;
5010;SDS011;2524;54.364;10.072;2022-07-18T03:30:12;1.40;;;1.40;;
5010;SDS011;2524;54.364;10.072;2022-07-18T03:32:38;1.40;;;1.40;;
5010;SDS011;2524;54.364;10.072;2022-07-18T03:35:04;1.10;;;1.10;;
5010;SDS011;2524;54.364;10.072;2022-07-18T03:37:30;1.50;;;1.40;;
5010;SDS011;2524;54.364;10.072;2022-07-18T03:39:56;1.67;;;1.67;;
5010;SDS011;2524;54.364;10.072;2022-07-18T03:42:22;1.53;;;1.50;;
5010;SDS011;2524;54.364;10.072;2022-07-18T03:44:48;1.47;;;1.47;;
5010;SDS011;2524;54.364;10.072;2022-07-18T03:47:14;1.83;;;1.60;;
5010;SDS011;2524;54.364;10.072;2022-07-18T03:49:40;1.50;;;1.50;;
5010;SDS011;2524;54.364;10.072;2022-07-18T03:52:06;1.30;;;1.30;;
5010;SDS011;2524;54.364;10.072;2022-07-18T03:54:32;1.13;;;1.13;;
5010;SDS011;2524;54.364;10.072;2022-07-18T03:56:58;1.53;;;1.53;;
5010;SDS011;2524;54.364;10.072;2022-07-18T03:59:24;1.50;;;1.50;;
5010;SDS011;2524;54.364;10.072;2022-07-18T04:01:50;1.50;;;1.50;;
5010;SDS011;2524;54.364;10.072;2022-07-18T04:04:16;1.47;;;1.37;;
5010;SDS011;2524;54.364;10.072;2022-07-18T04:06:42;1.33;;;1.33;;
5010;SDS011;2524;54.364;10.072;2022-07-18T04:09:08;1.30;;;1.30;;
5010;SDS011;2524;54.364;10.072;2022-07-18T04:11:34;1.40;;;1.30;;
5010;SDS011;2524;54.364;10.072;2022-07-18T04:14:00;1.13;;;1.13;;
5010;SDS011;2524;54.364;10.072;2022-07-18T04:16:26;1.40;;;1.33;;
5010;SDS011;2524;54.364;10.072;2022-07-18T04:18:52;1.70;;;1.67;;
5010;SDS011;2524;54.364;10.072;2022-07-18T04:21:18;1.30;;;1.30;;
5010;SDS011;2524;54.364;10.072;2022-07-18T04:23:44;1.23;;;1.23;;
5010;SDS011;2524;54.364;10.072;2022-07-18T04:26:11;1.30;;;1.30;;
5010;SDS011;2524;54.364;10.072;2022-07-18T04:28:37;1.50;;;1.50;;
5010;SDS011;2524;54.364;10.072;2022-07-18T04:31:03;1.23;;;1.20;;
5010;SDS011;2524;54.364;10.072;2022-07-18T04:33:29;1.50;;;1.50;;
5010;SDS011;2524;54.364;10.072;2022-07-18T04:35:55;1.70;;;1.60;;
5010;SDS011;2524;54.364;10.072;2022-07-18T04:38:21;1.50;;;1.40;;
5010;SDS011;2524;54.364;10.072;2022-07-18T04:40:47;1.60;;;1.50;;
5010;SDS011;2524;54.364;10.072;2022-07-18T04:43:12;1.70;;;1.60;;
5010;SDS011;2524;54.364;10.072;2022-07-18T04:45:38;1.60;;;1.50;;
5010;SDS011;2524;54.364;10.072;2022-07-18T04:48:05;1.50;;;1.50;;
5010;SDS011;2524;54.364;10.072;2022-07-18T04:50:31;1.90;;;1.80;;
5010;SDS011;2524;54.364;10.072;2022-07-18T04:52:57;1.80;;;1.80;;
5010;SDS011;2524;54.364;10.072;2022-07-18T04:55:24;2.10;;;1.90;;
5010;SDS011;2524;54.364;10.072;2022-07-18T04:57:51;1.67;;;1.57;;
5010;SDS011;2524;54.364;10.072;2022-07-18T05:00:18;1.97;;;1.87;;
5010;SDS011;2524;54.364;10.072;2022-07-18T05:02:45;1.63;;;1.53;;
5010;SDS011;2524;54.364;10.072;2022-07-18T05:05:11;1.97;;;1.90;;
5010;SDS011;2524;54.364;10.072;2022-07-18T05:07:38;1.70;;;1.70;;
5010;SDS011;2524;54.364;10.072;2022-07-18T05:10:05;1.40;;;1.40;;
5010;SDS011;2524;54.364;10.072;2022-07-18T05:12:33;1.73;;;1.73;;
5010;SDS011;2524;54.364;10.072;2022-07-18T05:14:59;1.63;;;1.53;;
5010;SDS011;2524;54.364;10.072;2022-07-18T05:17:25;1.47;;;1.40;;
5010;SDS011;2524;54.364;10.072;2022-07-18T05:19:51;1.60;;;1.60;;
5010;SDS011;2524;54.364;10.072;2022-07-18T05:22:17;2.03;;;1.93;;
5010;SDS011;2524;54.364;10.072;2022-07-18T05:24:43;1.40;;;1.40;;
5010;SDS011;2524;54.364;10.072;2022-07-18T05:27:09;1.50;;;1.50;;
5010;SDS011;2524;54.364;10.072;2022-07-18T05:29:34;2.00;;;1.90;;
5010;SDS011;2524;54.364;10.072;2022-07-18T05:32:01;1.87;;;1.80;;
5010;SDS011;2524;54.364;10.072;2022-07-18T05:34:27;1.90;;;1.80;;
5010;SDS011;2524;54.364;10.072;2022-07-18T05:36:53;1.80;;;1.70;;
5010;SDS011;2524;54.364;10.072;2022-07-18T05:39:20;2.03;;;1.93;;
5010;SDS011;2524;54.364;10.072;2022-07-18T05:41:46;2.27;;;1.53;;
5010;SDS011;2524;54.364;10.072;2022-07-18T05:44:12;1.93;;;1.83;;
5010;SDS011;2524;54.364;10.072;2022-07-18T05:46:38;2.50;;;1.80;;
5010;SDS011;2524;54.364;10.072;2022-07-18T05:49:04;1.67;;;1.67;;
5010;SDS011;2524;54.364;10.072;2022-07-18T05:51:30;1.80;;;1.70;;
5010;SDS011;2524;54.364;10.072;2022-07-18T05:53:56;1.90;;;1.80;;
5010;SDS011;2524;54.364;10.072;2022-07-18T05:56:22;1.67;;;1.67;;
5010;SDS011;2524;54.364;10.072;2022-07-18T05:58:48;2.10;;;2.00;;
5010;SDS011;2524;54.364;10.072;2022-07-18T06:01:14;2.10;;;2.00;;
5010;SDS011;2524;54.364;10.072;2022-07-18T06:03:44;2.00;;;1.90;;
5010;SDS011;2524;54.364;10.072;2022-07-18T06:06:10;2.00;;;1.90;;
5010;SDS011;2524;54.364;10.072;2022-07-18T06:08:36;1.40;;;1.40;;
5010;SDS011;2524;54.364;10.072;2022-07-18T06:11:02;1.80;;;1.73;;
5010;SDS011;2524;54.364;10.072;2022-07-18T06:13:31;1.97;;;1.87;;
5010;SDS011;2524;54.364;10.072;2022-07-18T06:15:57;1.77;;;1.77;;
5010;SDS011;2524;54.364;10.072;2022-07-18T06:18:23;1.70;;;1.70;;
5010;SDS011;2524;54.364;10.072;2022-07-18T06:20:49;1.60;;;1.60;;
5010;SDS011;2524;54.364;10.072;2022-07-18T06:23:15;1.63;;;1.60;;
5010;SDS011;2524;54.364;10.072;2022-07-18T06:25:41;1.80;;;1.70;;
5010;SDS011;2524;54.364;10.072;2022-07-18T06:28:07;1.50;;;1.50;;
5010;SDS011;2524;54.364;10.072;2022-07-18T06:30:33;2.47;;;2.37;;
5010;SDS011;2524;54.364;10.072;2022-07-18T06:32:59;2.00;;;1.90;;
5010;SDS011;2524;54.364;10.072;2022-07-18T06:35:28;2.00;;;1.90;;
5010;SDS011;2524;54.364;10.072;2022-07-18T06:37:54;2.10;;;2.00;;
5010;SDS011;2524;54.364;10.072;2022-07-18T06:40:20;2.27;;;2.17;;
5010;SDS011;2524;54.364;10.072;2022-07-18T06:42:50;2.13;;;2.10;;
5010;SDS011;2524;54.364;10.072;2022-07-18T06:45:16;1.60;;;1.60;;
5010;SDS011;2524;54.364;10.072;2022-07-18T06:47:42;1.90;;;1.90;;
5010;SDS011;2524;54.364;10.072;2022-07-18T06:50:08;2.00;;;1.93;;
5010;SDS011;2524;54.364;10.072;2022-07-18T06:52:34;1.53;;;1.50;;
5010;SDS011;2524;54.364;10.072;2022-07-18T06:55:02;2.00;;;1.90;;
5010;SDS011;2524;54.364;10.072;2022-07-18T06:57:28;2.13;;;2.07;;
5010;SDS011;2524;54.364;10.072;2022-07-18T06:59:54;2.10;;;2.00;;
5010;SDS011;2524;54.364;10.072;2022-07-18T07:02:20;2.00;;;1.90;;
5010;SDS011;2524;54.364;10.072;2022-07-18T07:04:46;2.77;;;2.47;;
5010;SDS011;2524;54.364;10.072;2022-07-18T07:07:12;3.00;;;2.80;;
5010;SDS011;2524;54.364;10.072;2022-07-18T07:09:38;2.80;;;2.67;;
5010;SDS011;2524;54.364;10.072;2022-07-18T07:12:04;2.77;;;2.57;;
5010;SDS011;2524;54.364;10.072;2022-07-18T07:14:30;4.00;;;2.37;;
5010;SDS011;2524;54.364;10.072;2022-07-18T07:16:56;2.53;;;2.43;;
5010;SDS011;2524;54.364;10.072;2022-07-18T07:19:22;2.97;;;2.77;;
5010;SDS011;2524;54.364;10.072;2022-07-18T07:21:48;2.83;;;2.60;;
5010;SDS011;2524;54.364;10.072;2022-07-18T07:24:14;2.53;;;2.43;;
5010;SDS011;2524;54.364;10.072;2022-07-18T07:26:40;2.60;;;2.40;;
5010;SDS011;2524;54.364;10.072;2022-07-18T07:29:06;1.97;;;1.97;;
5010;SDS011;2524;54.364;10.072;2022-07-18T07:31:32;2.90;;;2.70;;
5010;SDS011;2524;54.364;10.072;2022-07-18T07:33:57;2.50;;;2.40;;
5010;SDS011;2524;54.364;10.072;2022-07-18T07:36:23;2.70;;;2.50;;
5010;SDS011;2524;54.364;10.072;2022-07-18T07:38:49;2.10;;;2.00;;
5010;SDS011;2524;54.364;10.072;2022-07-18T07:41:15;2.30;;;2.20;;
5010;SDS011;2524;54.364;10.072;2022-07-18T07:43:41;2.20;;;2.10;;
5010;SDS011;2524;54.364;10.072;2022-07-18T07:46:07;2.30;;;2.20;;
5010;SDS011;2524;54.364;10.072;2022-07-18T07:48:35;2.87;;;2.67;;
5010;SDS011;2524;54.364;10.072;2022-07-18T07:51:01;2.03;;;1.93;;
5010;SDS011;2524;54.364;10.072;2022-07-18T07:53:28;1.97;;;1.97;;
5010;SDS011;2524;54.364;10.072;2022-07-18T07:55:54;2.70;;;2.53;;
5010;SDS011;2524;54.364;10.072;2022-07-18T07:58:20;2.30;;;2.20;;
5010;SDS011;2524;54.364;10.072;2022-07-18T08:00:46;2.40;;;2.30;;
5010;SDS011;2524;54.364;10.072;2022-07-18T08:03:12;2.10;;;2.00;;
5010;SDS011;2524;54.364;10.072;2022-07-18T08:05:46;2.30;;;2.20;;
5010;SDS011;2524;54.364;10.072;2022-07-18T08:08:12;4.00;;;3.60;;
5010;SDS011;2524;54.364;10.072;2022-07-18T08:10:38;3.30;;;3.10;;
5010;SDS011;2524;54.364;10.072;2022-07-18T08:13:05;3.47;;;3.17;;
5010;SDS011;2524;54.364;10.072;2022-07-18T08:15:31;2.80;;;2.60;;
5010;SDS011;2524;54.364;10.072;2022-07-18T08:17:57;2.77;;;2.67;;
5010;SDS011;2524;54.364;10.072;2022-07-18T08:20:23;2.43;;;2.23;;
5010;SDS011;2524;54.364;10.072;2022-07-18T08:22:56;3.10;;;2.90;;
5010;SDS011;2524;54.364;10.072;2022-07-18T08:25:22;2.50;;;2.40;;
5010;SDS011;2524;54.364;10.072;2022-07-18T08:27:48;3.03;;;2.33;;
5010;SDS011;2524;54.364;10.072;2022-07-18T08:30:14;3.27;;;3.03;;
5010;SDS011;2524;54.364;10.072;2022-07-18T08:32:40;2.80;;;2.60;;
5010;SDS011;2524;54.364;10.072;2022-07-18T08:35:06;2.93;;;2.80;;
5010;SDS011;2524;54.364;10.072;2022-07-18T08:37:32;2.80;;;2.60;;
5010;SDS011;2524;54.364;10.072;2022-07-18T08:39:58;2.70;;;2.50;;
5010;SDS011;2524;54.364;10.072;2022-07-18T08:42:26;3.17;;;2.90;;
5010;SDS011;2524;54.364;10.072;2022-07-18T08:44:52;2.83;;;2.70;;
5010;SDS011;2524;54.364;10.072;2022-07-18T08:47:18;2.70;;;2.60;;
5010;SDS011;2524;54.364;10.072;2022-07-18T08:49:45;3.17;;;2.97;;
5010;SDS011;2524;54.364;10.072;2022-07-18T08:52:11;3.03;;;2.83;;
5010;SDS011;2524;54.364;10.072;2022-07-18T08:54:37;3.20;;;3.00;;
5010;SDS011;2524;54.364;10.072;2022-07-18T08:57:03;3.10;;;2.80;;
5010;SDS011;2524;54.364;10.072;2022-07-18T08:59:29;3.20;;;2.90;;
5010;SDS011;2524;54.364;10.072;2022-07-18T09:01:55;3.70;;;3.47;;
5010;SDS011;2524;54.364;10.072;2022-07-18T09:04:37;3.50;;;3.20;;
5010;SDS011;2524;54.364;10.072;2022-07-18T09:07:04;2.47;;;2.37;;
5010;SDS011;2524;54.364;10.072;2022-07-18T09:09:31;3.20;;;3.00;;
5010;SDS011;2524;54.364;10.072;2022-07-18T09:12:01;3.20;;;3.00;;
5010;SDS011;2524;54.364;10.072;2022-07-18T09:19:59;3.70;;;3.40;;
5010;SDS011;2524;54.364;10.072;2022-07-18T09:22:26;4.00;;;3.70;;
5010;SDS011;2524;54.364;10.072;2022-07-18T09:24:57;3.40;;;3.20;;
5010;SDS011;2524;54.364;10.072;2022-07-18T09:27:29;3.67;;;3.37;;
5010;SDS011;2524;54.364;10.072;2022-07-18T09:35:22;3.70;;;3.40;;
5010;SDS011;2524;54.364;10.072;2022-07-18T09:37:51;4.10;;;3.70;;
5010;SDS011;2524;54.364;10.072;2022-07-18T09:40:21;3.37;;;3.17;;
5010;SDS011;2524;54.364;10.072;2022-07-18T09:42:48;3.63;;;3.40;;
5010;SDS011;2524;54.364;10.072;2022-07-18T09:45:15;3.90;;;3.60;;
5010;SDS011;2524;54.364;10.072;2022-07-18T09:47:51;4.40;;;4.00;;
5010;SDS011;2524;54.364;10.072;2022-07-18T09:50:22;4.37;;;3.97;;
5010;SDS011;2524;54.364;10.072;2022-07-18T09:55:30;3.60;;;3.33;;
5010;SDS011;2524;54.364;10.072;2022-07-18T09:57:57;2.80;;;2.70;;
5010;SDS011;2524;54.364;10.072;2022-07-18T10:00:24;3.20;;;3.00;;
5010;SDS011;2524;54.364;10.072;2022-07-18T10:02:50;2.97;;;2.77;;
5010;SDS011;2524;54.364;10.072;2022-07-18T10:05:16;2.83;;;2.63;;
5010;SDS011;2524;54.364;10.072;2022-07-18T10:07:42;4.20;;;3.80;;
5010;SDS011;2524;54.364;10.072;2022-07-18T10:10:08;3.90;;;3.60;;
5010;SDS011;2524;54.364;10.072;2022-07-18T10:12:34;3.50;;;3.30;;
5010;SDS011;2524;54.364;10.072;2022-07-18T10:15:00;3.27;;;3.07;;
5010;SDS011;2524;54.364;10.072;2022-07-18T10:17:27;2.47;;;2.37;;
5010;SDS011;2524;54.364;10.072;2022-07-18T10:19:53;2.80;;;2.60;;
5010;SDS011;2524;54.364;10.072;2022-07-18T10:22:19;2.80;;;2.60;;
5010;SDS011;2524;54.364;10.072;2022-07-18T10:24:45;2.73;;;2.57;;
5010;SDS011;2524;54.364;10.072;2022-07-18T10:27:15;3.10;;;2.90;;
5010;SDS011;2524;54.364;10.072;2022-07-18T10:32:33;3.17;;;2.97;;
5010;SDS011;2524;54.364;10.072;2022-07-18T10:34:59;3.57;;;3.30;;
5010;SDS011;2524;54.364;10.072;2022-07-18T10:37:25;3.50;;;3.30;;
5010;SDS011;2524;54.364;10.072;2022-07-18T10:39:51;5.83;;;3.73;;
5010;SDS011;2524;54.364;10.072;2022-07-18T10:42:19;3.40;;;3.20;;
5010;SDS011;2524;54.364;10.072;2022-07-18T10:44:46;4.30;;;4.00;;
5010;SDS011;2524;54.364;10.072;2022-07-18T10:47:13;3.80;;;3.50;;
5010;SDS011;2524;54.364;10.072;2022-07-18T10:57:42;4.30;;;3.90;;
5010;SDS011;2524;54.364;10.072;2022-07-18T11:00:13;4.33;;;3.93;;
5010;SDS011;2524;54.364;10.072;2022-07-18T11:02:43;4.10;;;3.80;;
5010;SDS011;2524;54.364;10.072;2022-07-18T11:08:36;3.50;;;3.30;;
5010;SDS011;2524;54.364;10.072;2022-07-18T11:15:56;3.70;;;3.50;;
5010;SDS011;2524;54.364;10.072;2022-07-18T11:18:23;4.90;;;4.40;;
5010;SDS011;2524;54.364;10.072;2022-07-18T11:20:49;7.50;;;4.30;;
5010;SDS011;2524;54.364;10.072;2022-07-18T11:23:17;4.30;;;3.90;;
5010;SDS011;2524;54.364;10.072;2022-07-18T11:25:43;4.13;;;3.83;;
5010;SDS011;2524;54.364;10.072;2022-07-18T11:28:10;4.60;;;4.13;;
5010;SDS011;2524;54.364;10.072;2022-07-18T11:30:36;4.30;;;4.00;;
5010;SDS011;2524;54.364;10.072;2022-07-18T11:33:02;4.87;;;4.47;;
5010;SDS011;2524;54.364;10.072;2022-07-18T11:35:28;4.37;;;4.00;;
5010;SDS011;2524;54.364;10.072;2022-07-18T11:37:54;4.17;;;3.87;;
5010;SDS011;2524;54.364;10.072;2022-07-18T11:40:21;4.90;;;4.43;;
5010;SDS011;2524;54.364;10.072;2022-07-18T11:42:47;4.00;;;3.70;;
5010;SDS011;2524;54.364;10.072;2022-07-18T11:45:14;3.87;;;3.60;;
5010;SDS011;2524;54.364;10.072;2022-07-18T11:47:48;4.20;;;3.77;;
5010;SDS011;2524;54.364;10.072;2022-07-18T11:50:15;3.83;;;3.47;;
5010;SDS011;2524;54.364;10.072;2022-07-18T11:52:41;3.93;;;3.73;;
5010;SDS011;2524;54.364;10.072;2022-07-18T11:55:08;4.13;;;3.83;;
5010;SDS011;2524;54.364;10.072;2022-07-18T11:57:34;3.60;;;3.40;;
5010;SDS011;2524;54.364;10.072;2022-07-18T12:00:00;3.53;;;3.33;;
5010;SDS011;2524;54.364;10.072;2022-07-18T12:05:11;3.53;;;3.30;;
5010;SDS011;2524;54.364;10.072;2022-07-18T12:07:37;4.33;;;3.23;;
5010;SDS011;2524;54.364;10.072;2022-07-18T12:10:16;3.73;;;3.43;;
5010;SDS011;2524;54.364;10.072;2022-07-18T12:12:42;3.73;;;3.50;;
5010;SDS011;2524;54.364;10.072;2022-07-18T12:15:08;3.90;;;3.60;;
5010;SDS011;2524;54.364;10.072;2022-07-18T12:17:42;3.07;;;2.90;;
5010;SDS011;2524;54.364;10.072;2022-07-18T12:20:10;3.17;;;2.97;;
5010;SDS011;2524;54.364;10.072;2022-07-18T12:22:36;3.17;;;2.97;;
5010;SDS011;2524;54.364;10.072;2022-07-18T12:25:02;3.53;;;3.33;;
5010;SDS011;2524;54.364;10.072;2022-07-18T12:29:59;3.80;;;3.60;;
5010;SDS011;2524;54.364;10.072;2022-07-18T12:37:53;3.27;;;3.07;;
5010;SDS011;2524;54.364;10.072;2022-07-18T12:40:20;3.37;;;3.17;;
5010;SDS011;2524;54.364;10.072;2022-07-18T12:42:46;3.27;;;3.07;;
5010;SDS011;2524;54.364;10.072;2022-07-18T12:45:12;2.93;;;2.80;;
5010;SDS011;2524;54.364;10.072;2022-07-18T12:47:38;3.00;;;2.80;;
5010;SDS011;2524;54.364;10.072;2022-07-18T12:50:05;2.90;;;2.73;;
5010;SDS011;2524;54.364;10.072;2022-07-18T12:52:32;5.50;;;3.63;;
5010;SDS011;2524;54.364;10.072;2022-07-18T12:54:58;3.50;;;3.20;;
5010;SDS011;2524;54.364;10.072;2022-07-18T12:57:24;4.37;;;3.97;;
5010;SDS011;2524;54.364;10.072;2022-07-18T12:59:51;5.43;;;4.17;;
5010;SDS011;2524;54.364;10.072;2022-07-18T13:02:17;4.20;;;3.80;;
5010;SDS011;2524;54.364;10.072;2022-07-18T13:04:43;4.03;;;3.63;;
5010;SDS011;2524;54.364;10.072;2022-07-18T13:07:10;3.33;;;3.13;;
5010;SDS011;2524;54.364;10.072;2022-07-18T13:09:36;2.80;;;2.60;;
5010;SDS011;2524;54.364;10.072;2022-07-18T13:12:02;3.60;;;3.30;;
5010;SDS011;2524;54.364;10.072;2022-07-18T13:14:28;5.80;;;4.60;;
5010;SDS011;2524;54.364;10.072;2022-07-18T13:16:54;5.00;;;4.60;;
5010;SDS011;2524;54.364;10.072;2022-07-18T13:19:20;6.73;;;4.93;;
5010;SDS011;2524;54.364;10.072;2022-07-18T13:21:46;4.43;;;4.00;;
5010;SDS011;2524;54.364;10.072;2022-07-18T13:24:13;4.70;;;4.30;;
5010;SDS011;2524;54.364;10.072;2022-07-18T13:26:39;3.40;;;3.20;;
5010;SDS011;2524;54.364;10.072;2022-07-18T13:29:06;3.80;;;3.30;;
5010;SDS011;2524;54.364;10.072;2022-07-18T13:31:32;4.30;;;3.70;;
5010;SDS011;2524;54.364;10.072;2022-07-18T13:33:58;4.00;;;3.33;;
5010;SDS011;2524;54.364;10.072;2022-07-18T13:36:24;4.47;;;4.07;;
5010;SDS011;2524;54.364;10.072;2022-07-18T13:38:50;4.30;;;3.90;;
5010;SDS011;2524;54.364;10.072;2022-07-18T13:41:16;4.20;;;3.90;;
5010;SDS011;2524;54.364;10.072;2022-07-18T13:43:42;4.13;;;3.73;;
5010;SDS011;2524;54.364;10.072;2022-07-18T13:46:09;3.77;;;3.57;;
5010;SDS011;2524;54.364;10.072;2022-07-18T13:48:35;3.57;;;3.37;;
5010;SDS011;2524;54.364;10.072;2022-07-18T13:51:02;3.50;;;3.30;;
5010;SDS011;2524;54.364;10.072;2022-07-18T13:53:28;3.97;;;3.57;;
5010;SDS011;2524;54.364;10.072;2022-07-18T13:55:54;3.83;;;3.60;;
5010;SDS011;2524;54.364;10.072;2022-07-18T13:58:20;4.27;;;3.97;;
5010;SDS011;2524;54.364;10.072;2022-07-18T14:00:46;4.67;;;3.40;;
5010;SDS011;2524;54.364;10.072;2022-07-18T14:03:12;4.00;;;3.73;;
5010;SDS011;2524;54.364;10.072;2022-07-18T14:05:39;8.57;;;6.13;;
5010;SDS011;2524;54.364;10.072;2022-07-18T14:08:05;4.70;;;4.30;;
5010;SDS011;2524;54.364;10.072;2022-07-18T14:10:31;4.60;;;4.20;;
5010;SDS011;2524;54.364;10.072;2022-07-18T14:12:58;4.93;;;4.53;;
5010;SDS011;2524;54.364;10.072;2022-07-18T14:15:24;4.50;;;3.87;;
5010;SDS011;2524;54.364;10.072;2022-07-18T14:17:50;4.20;;;3.90;;
5010;SDS011;2524;54.364;10.072;2022-07-18T14:20:16;4.40;;;4.00;;
5010;SDS011;2524;54.364;10.072;2022-07-18T14:22:42;5.83;;;5.27;;
5010;SDS011;2524;54.364;10.072;2022-07-18T14:25:10;5.13;;;4.67;;
5010;SDS011;2524;54.364;10.072;2022-07-18T14:27:36;6.10;;;4.70;;
5010;SDS011;2524;54.364;10.072;2022-07-18T14:30:03;5.37;;;4.83;;
5010;SDS011;2524;54.364;10.072;2022-07-18T14:32:29;5.40;;;4.90;;
5010;SDS011;2524;54.364;10.072;2022-07-18T14:34:55;4.73;;;4.33;;
5010;SDS011;2524;54.364;10.072;2022-07-18T14:37:21;4.87;;;4.47;;
5010;SDS011;2524;54.364;10.072;2022-07-18T14:39:47;4.27;;;3.97;;
5010;SDS011;2524;54.364;10.072;2022-07-18T14:42:13;4.87;;;4.30;;
5010;SDS011;2524;54.364;10.072;2022-07-18T14:44:39;4.80;;;4.40;;
5010;SDS011;2524;54.364;10.072;2022-07-18T14:47:05;4.50;;;4.10;;
5010;SDS011;2524;54.364;10.072;2022-07-18T14:49:31;3.93;;;3.63;;
5010;SDS011;2524;54.364;10.072;2022-07-18T14:51:57;3.47;;;3.17;;
5010;SDS011;2524;54.364;10.072;2022-07-18T14:54:26;3.93;;;3.63;;
5010;SDS011;2524;54.364;10.072;2022-07-18T14:56:52;4.03;;;3.63;;
5010;SDS011;2524;54.364;10.072;2022-07-18T14:59:18;2.90;;;2.70;;
5010;SDS011;2524;54.364;10.072;2022-07-18T15:01:44;3.13;;;2.93;;
5010;SDS011;2524;54.364;10.072;2022-07-18T15:04:10;3.50;;;3.30;;
5010;SDS011;2524;54.364;10.072;2022-07-18T15:06:36;3.40;;;3.20;;
5010;SDS011;2524;54.364;10.072;2022-07-18T15:09:02;3.57;;;3.27;;
5010;SDS011;2524;54.364;10.072;2022-07-18T15:11:28;6.60;;;4.90;;
5010;SDS011;2524;54.364;10.072;2022-07-18T15:13:55;4.47;;;4.13;;
5010;SDS011;2524;54.364;10.072;2022-07-18T15:16:21;4.87;;;4.47;;
5010;SDS011;2524;54.364;10.072;2022-07-18T15:18:47;3.77;;;3.47;;
5010;SDS011;2524;54.364;10.072;2022-07-18T15:21:13;4.40;;;4.00;;
5010;SDS011;2524;54.364;10.072;2022-07-18T15:23:39;4.27;;;3.20;;
5010;SDS011;2524;54.364;10.072;2022-07-18T15:26:05;3.80;;;3.50;;
5010;SDS011;2524;54.364;10.072;2022-07-18T15:28:31;5.23;;;4.60;;
5010;SDS011;2524;54.364;10.072;2022-07-18T15:30:57;6.77;;;4.90;;
5010;SDS011;2524;54.364;10.072;2022-07-18T15:33:24;5.10;;;4.60;;
5010;SDS011;2524;54.364;10.072;2022-07-18T15:35:50;5.10;;;4.60;;
5010;SDS011;2524;54.364;10.072;2022-07-18T15:38:16;4.97;;;4.50;;
5010;SDS011;2524;54.364;10.072;2022-07-18T15:40:42;4.83;;;4.43;;